Green Sulphur Springs, WV (25966)

7:20 PM EDT on May 24, 2015 (GMT -0400)
KWVALDER3 | | Change Station
CLOSE
Current Station
Personal Weather Station
Location: Blue Sulphur Springs, WV
Elevation: 1719 ft
Nearby Weather Stations

Elev 1719 ft 37.83 °N, 80.64 °W | Updated 5 seconds ago

Clear
Clear
73.3 °F
Feels Like 77 °F
N
0.7
Wind Variable Wind from ESE
Gusts 1.6 mph

Today
High -- | Low -- °F
--% Chance of Precip.
Yesterday
High -- | Low -- °F
Precip. -- in
6:06 AM 8:33 PM
Waxing Crescent, 43% visible
Pressure 30.21 in
Visibility 10.0 miles
Clouds Clear
Heat Index 77 °F
Dew Point 54 °F
Humidity 50%
Rainfall 0.00 in
Snow Depth Not available.
UV 1 out of 12
Pollen 8.20 out of 12
Air Quality Not available.
Flu Activity Sporadic
METAR KBKW 242251Z AUTO 14007KT 10SM CLR 24/09 A3029 RMK AO2 SLP230 T02440089

More Conditions Fewer Conditions

Pressure 30.21 in
Visibility 10.0 miles
Clouds Clear
Heat Index 77 °F
Dew Point 54 °F
Humidity 50%
Rainfall 0.00 in
Snow Depth Not available.
UV 1 out of 12
Pollen 8.20 out of 12
Air Quality Not available.
Flu Activity Sporadic
METAR KBKW 242251Z AUTO 14007KT 10SM CLR 24/09 A3029 RMK AO2 SLP230 T02440089

More Conditions Fewer Conditions

10-Day Weather Forecast

Almanac

Astronomy

May. 24, 2015 Rise Set
Actual Time
Civil Twilight
Nautical Twilight
Astronomical Twilight
Moon
Length of Visible Light
Length of Day
Tomorrow will be .
, % of the Moon is Illuminated

Today's Extremes

State Highs State Lows

Community

WunderPhotos

Upload Photos

1,823,892 photos uploaded!

WunderBlogs® & News

Nearby

Air Quality

  Air Quality AQ Index Pollutant
Not available.

Snow Depth

Station Depth Elevation

Earthquake Activity

City Distance Mag. Time & Date
Minimum magnitude displayed is 2.5.

Coastal Water Temperatures

Place Temperature

Stations

Nearby Weather Stations

Station Location Temp. Windchill Dew Point Humidity Wind Precip. Elev Updated Type